sensor_id;sensor_type;location;lat;lon;timestamp;pressure;altitude;pressure_sealevel;temperature;humidity
56831;BME280;42713;42.676;23.352;2023-11-19T00:02:08;94745.25;;;2.52;71.13
56831;BME280;42713;42.676;23.352;2023-11-19T00:04:37;94719.78;;;2.48;70.92
56831;BME280;42713;42.676;23.352;2023-11-19T00:07:07;94710.81;;;2.44;71.01
56831;BME280;42713;42.676;23.352;2023-11-19T00:09:43;94759.97;;;2.51;70.83
56831;BME280;42713;42.676;23.352;2023-11-19T00:12:11;94715.19;;;2.44;70.78
56831;BME280;42713;42.676;23.352;2023-11-19T00:14:51;94707.66;;;2.49;71.07
56831;BME280;42713;42.676;23.352;2023-11-19T00:17:31;94706.00;;;2.41;70.59
56831;BME280;42713;42.676;23.352;2023-11-19T00:20:20;94706.00;;;2.35;70.44
56831;BME280;42713;42.676;23.352;2023-11-19T00:22:51;94728.53;;;2.47;70.54
56831;BME280;42713;42.676;23.352;2023-11-19T00:25:29;94723.75;;;2.44;70.73
56831;BME280;42713;42.676;23.352;2023-11-19T00:27:55;94719.31;;;2.31;70.65
56831;BME280;42713;42.676;23.352;2023-11-19T00:30:31;94707.00;;;2.33;70.59
56831;BME280;42713;42.676;23.352;2023-11-19T00:33:05;94723.53;;;2.39;69.99
56831;BME280;42713;42.676;23.352;2023-11-19T00:35:37;94723.06;;;2.29;70.62
56831;BME280;42713;42.676;23.352;2023-11-19T00:38:03;94708.91;;;2.25;70.67
56831;BME280;42713;42.676;23.352;2023-11-19T00:40:32;94710.72;;;2.31;70.90
56831;BME280;42713;42.676;23.352;2023-11-19T00:42:58;94730.09;;;2.42;71.16
56831;BME280;42713;42.676;23.352;2023-11-19T00:45:28;94712.75;;;2.36;70.60
56831;BME280;42713;42.676;23.352;2023-11-19T00:47:55;94713.75;;;2.35;70.55
56831;BME280;42713;42.676;23.352;2023-11-19T00:50:25;94729.84;;;2.37;70.70
56831;BME280;42713;42.676;23.352;2023-11-19T00:53:02;94727.66;;;2.33;70.60
56831;BME280;42713;42.676;23.352;2023-11-19T00:55:37;94719.50;;;2.30;70.47
56831;BME280;42713;42.676;23.352;2023-11-19T00:58:15;94715.72;;;2.32;70.95
56831;BME280;42713;42.676;23.352;2023-11-19T01:00:48;94718.28;;;2.26;70.94
56831;BME280;42713;42.676;23.352;2023-11-19T01:03:33;94738.53;;;2.22;70.89
56831;BME280;42713;42.676;23.352;2023-11-19T01:06:13;94727.84;;;2.32;71.04
56831;BME280;42713;42.676;23.352;2023-11-19T01:08:47;94721.19;;;2.16;71.80
56831;BME280;42713;42.676;23.352;2023-11-19T01:11:20;94742.47;;;2.18;71.25
56831;BME280;42713;42.676;23.352;2023-11-19T01:13:46;94722.38;;;2.13;71.86
56831;BME280;42713;42.676;23.352;2023-11-19T01:16:14;94741.28;;;2.21;71.67
56831;BME280;42713;42.676;23.352;2023-11-19T01:18:43;94723.19;;;2.14;71.38
56831;BME280;42713;42.676;23.352;2023-11-19T01:21:12;94705.50;;;2.17;71.75
56831;BME280;42713;42.676;23.352;2023-11-19T01:23:41;94717.19;;;2.13;71.74
56831;BME280;42713;42.676;23.352;2023-11-19T01:26:14;94712.44;;;2.10;71.90
56831;BME280;42713;42.676;23.352;2023-11-19T01:28:45;94718.00;;;2.14;72.31
56831;BME280;42713;42.676;23.352;2023-11-19T01:31:19;94718.75;;;2.08;71.62
56831;BME280;42713;42.676;23.352;2023-11-19T01:33:45;94793.31;;;2.11;71.78
56831;BME280;42713;42.676;23.352;2023-11-19T01:36:15;94737.44;;;2.10;71.84
56831;BME280;42713;42.676;23.352;2023-11-19T01:38:44;94797.53;;;2.18;71.38
56831;BME280;42713;42.676;23.352;2023-11-19T01:41:10;94754.97;;;2.14;70.93
56831;BME280;42713;42.676;23.352;2023-11-19T01:43:37;94751.78;;;2.12;70.84
56831;BME280;42713;42.676;23.352;2023-11-19T01:46:08;94781.06;;;2.20;70.72
56831;BME280;42713;42.676;23.352;2023-11-19T01:48:48;94748.03;;;2.15;70.54
56831;BME280;42713;42.676;23.352;2023-11-19T01:51:16;94742.06;;;2.14;70.61
56831;BME280;42713;42.676;23.352;2023-11-19T01:53:43;94767.88;;;2.14;70.43
56831;BME280;42713;42.676;23.352;2023-11-19T01:56:13;94739.88;;;2.18;70.15
56831;BME280;42713;42.676;23.352;2023-11-19T01:58:40;94767.38;;;2.26;69.83
56831;BME280;42713;42.676;23.352;2023-11-19T02:01:06;94762.06;;;2.34;69.41
56831;BME280;42713;42.676;23.352;2023-11-19T02:03:39;94763.28;;;2.38;69.12
56831;BME280;42713;42.676;23.352;2023-11-19T02:06:07;94765.41;;;2.28;69.19
56831;BME280;42713;42.676;23.352;2023-11-19T02:08:42;94745.09;;;2.25;68.93
56831;BME280;42713;42.676;23.352;2023-11-19T02:11:16;94763.66;;;2.35;68.51
56831;BME280;42713;42.676;23.352;2023-11-19T02:13:47;94736.16;;;2.27;68.30
56831;BME280;42713;42.676;23.352;2023-11-19T02:16:13;94760.97;;;2.22;68.30
56831;BME280;42713;42.676;23.352;2023-11-19T02:18:38;94732.28;;;2.10;69.01
56831;BME280;42713;42.676;23.352;2023-11-19T02:21:09;94735.34;;;2.20;68.82
56831;BME280;42713;42.676;23.352;2023-11-19T02:23:36;94746.50;;;2.27;68.61
56831;BME280;42713;42.676;23.352;2023-11-19T02:26:24;94749.97;;;2.41;68.00
56831;BME280;42713;42.676;23.352;2023-11-19T02:28:55;94727.06;;;2.31;68.26
56831;BME280;42713;42.676;23.352;2023-11-19T02:31:23;94777.56;;;2.34;68.12
56831;BME280;42713;42.676;23.352;2023-11-19T02:33:52;94760.19;;;2.21;68.37
56831;BME280;42713;42.676;23.352;2023-11-19T02:36:21;94736.50;;;2.17;68.54
56831;BME280;42713;42.676;23.352;2023-11-19T02:38:52;94740.69;;;2.18;69.08
56831;BME280;42713;42.676;23.352;2023-11-19T02:41:20;94742.88;;;2.15;68.68
56831;BME280;42713;42.676;23.352;2023-11-19T02:43:49;94747.41;;;2.13;68.69
56831;BME280;42713;42.676;23.352;2023-11-19T02:46:15;94736.72;;;2.23;68.81
56831;BME280;42713;42.676;23.352;2023-11-19T02:48:42;94752.66;;;2.26;68.44
56831;BME280;42713;42.676;23.352;2023-11-19T02:51:09;94746.91;;;2.24;68.58
56831;BME280;42713;42.676;23.352;2023-11-19T02:53:36;94738.69;;;2.21;68.69
56831;BME280;42713;42.676;23.352;2023-11-19T02:56:02;94738.16;;;2.25;68.76
56831;BME280;42713;42.676;23.352;2023-11-19T02:58:37;94743.53;;;2.30;68.32
56831;BME280;42713;42.676;23.352;2023-11-19T03:01:04;94788.41;;;2.23;69.02
56831;BME280;42713;42.676;23.352;2023-11-19T03:03:38;94758.59;;;2.20;69.28
56831;BME280;42713;42.676;23.352;2023-11-19T03:06:06;94738.69;;;2.21;68.96
56831;BME280;42713;42.676;23.352;2023-11-19T03:08:32;94780.59;;;2.16;68.87
56831;BME280;42713;42.676;23.352;2023-11-19T03:10:58;94743.28;;;2.18;68.96
56831;BME280;42713;42.676;23.352;2023-11-19T03:13:24;94744.47;;;2.23;68.76
56831;BME280;42713;42.676;23.352;2023-11-19T03:15:50;94759.91;;;2.09;68.69
56831;BME280;42713;42.676;23.352;2023-11-19T03:18:15;94758.31;;;2.08;69.18
56831;BME280;42713;42.676;23.352;2023-11-19T03:20:41;94764.28;;;2.09;69.43
56831;BME280;42713;42.676;23.352;2023-11-19T03:23:06;94747.38;;;2.06;69.51
56831;BME280;42713;42.676;23.352;2023-11-19T03:25:32;94755.69;;;2.01;70.01
56831;BME280;42713;42.676;23.352;2023-11-19T03:28:02;94754.13;;;2.07;69.76
56831;BME280;42713;42.676;23.352;2023-11-19T03:30:29;94741.22;;;2.07;69.34
56831;BME280;42713;42.676;23.352;2023-11-19T03:32:58;94797.22;;;2.00;70.13
56831;BME280;42713;42.676;23.352;2023-11-19T03:35:25;94734.16;;;1.94;69.73
56831;BME280;42713;42.676;23.352;2023-11-19T03:37:51;94755.63;;;1.95;70.07
56831;BME280;42713;42.676;23.352;2023-11-19T03:40:17;94743.13;;;1.98;70.10
56831;BME280;42713;42.676;23.352;2023-11-19T03:42:47;94756.00;;;1.92;69.93
56831;BME280;42713;42.676;23.352;2023-11-19T03:45:12;94765.19;;;2.01;70.04
56831;BME280;42713;42.676;23.352;2023-11-19T03:47:38;94761.81;;;2.00;70.05
56831;BME280;42713;42.676;23.352;2023-11-19T03:50:06;94771.19;;;2.01;69.82
56831;BME280;42713;42.676;23.352;2023-11-19T03:52:33;94791.66;;;2.03;70.46
56831;BME280;42713;42.676;23.352;2023-11-19T03:54:59;94790.06;;;2.02;70.05
56831;BME280;42713;42.676;23.352;2023-11-19T03:57:24;94811.91;;;1.99;69.71
56831;BME280;42713;42.676;23.352;2023-11-19T03:59:50;94778.81;;;1.88;70.12
56831;BME280;42713;42.676;23.352;2023-11-19T04:02:16;94763.50;;;1.86;70.14
56831;BME280;42713;42.676;23.352;2023-11-19T04:04:42;94787.69;;;1.79;70.41
56831;BME280;42713;42.676;23.352;2023-11-19T04:07:07;94790.88;;;1.81;70.70
56831;BME280;42713;42.676;23.352;2023-11-19T04:09:33;94782.34;;;1.80;70.57
56831;BME280;42713;42.676;23.352;2023-11-19T04:12:01;94791.84;;;1.80;70.65
56831;BME280;42713;42.676;23.352;2023-11-19T04:14:27;94802.63;;;1.83;70.87
56831;BME280;42713;42.676;23.352;2023-11-19T04:16:52;94822.00;;;1.73;70.70
56831;BME280;42713;42.676;23.352;2023-11-19T04:19:19;94790.66;;;1.76;70.40
56831;BME280;42713;42.676;23.352;2023-11-19T04:21:45;94791.75;;;1.66;70.93
56831;BME280;42713;42.676;23.352;2023-11-19T04:24:11;94786.34;;;1.61;71.20
56831;BME280;42713;42.676;23.352;2023-11-19T04:26:41;94782.44;;;1.72;70.60
56831;BME280;42713;42.676;23.352;2023-11-19T04:29:09;94787.06;;;1.77;71.04
56831;BME280;42713;42.676;23.352;2023-11-19T04:31:34;94804.56;;;1.81;70.28
56831;BME280;42713;42.676;23.352;2023-11-19T04:34:00;94824.22;;;1.76;71.30
56831;BME280;42713;42.676;23.352;2023-11-19T04:36:25;94821.63;;;1.76;70.46
56831;BME280;42713;42.676;23.352;2023-11-19T04:38:51;94838.34;;;1.80;70.64
56831;BME280;42713;42.676;23.352;2023-11-19T04:41:16;94813.69;;;1.77;70.19
56831;BME280;42713;42.676;23.352;2023-11-19T04:43:42;94821.44;;;1.77;70.28
56831;BME280;42713;42.676;23.352;2023-11-19T04:46:09;94806.56;;;1.79;70.42
56831;BME280;42713;42.676;23.352;2023-11-19T04:48:35;94824.56;;;1.73;70.55
56831;BME280;42713;42.676;23.352;2023-11-19T04:51:00;94826.25;;;1.80;70.34
56831;BME280;42713;42.676;23.352;2023-11-19T04:53:26;94833.88;;;1.89;70.26
56831;BME280;42713;42.676;23.352;2023-11-19T04:55:51;94832.47;;;1.86;69.72
56831;BME280;42713;42.676;23.352;2023-11-19T04:58:17;94826.28;;;1.87;69.82
56831;BME280;42713;42.676;23.352;2023-11-19T05:00:44;94821.94;;;1.88;69.80
56831;BME280;42713;42.676;23.352;2023-11-19T05:03:19;94831.44;;;1.87;70.21
56831;BME280;42713;42.676;23.352;2023-11-19T05:05:48;94853.66;;;1.81;69.45
56831;BME280;42713;42.676;23.352;2023-11-19T05:08:44;94841.53;;;1.82;69.44
56831;BME280;42713;42.676;23.352;2023-11-19T05:11:10;94855.50;;;1.88;69.52
56831;BME280;42713;42.676;23.352;2023-11-19T05:13:37;94863.69;;;1.91;69.53
56831;BME280;42713;42.676;23.352;2023-11-19T05:16:03;94856.97;;;1.97;69.32
56831;BME280;42713;42.676;23.352;2023-11-19T05:18:29;94875.44;;;1.94;68.47
56831;BME280;42713;42.676;23.352;2023-11-19T05:20:54;94852.56;;;1.91;68.97
56831;BME280;42713;42.676;23.352;2023-11-19T05:23:20;94882.38;;;1.93;68.54
56831;BME280;42713;42.676;23.352;2023-11-19T05:25:45;94853.78;;;1.95;69.18
56831;BME280;42713;42.676;23.352;2023-11-19T05:28:11;94841.97;;;1.85;68.57
56831;BME280;42713;42.676;23.352;2023-11-19T05:30:36;94839.53;;;1.99;68.49
56831;BME280;42713;42.676;23.352;2023-11-19T05:33:02;94854.03;;;2.00;68.50
56831;BME280;42713;42.676;23.352;2023-11-19T05:35:27;94838.72;;;1.98;68.63
56831;BME280;42713;42.676;23.352;2023-11-19T05:37:53;94859.63;;;2.04;68.28
56831;BME280;42713;42.676;23.352;2023-11-19T05:40:18;94868.38;;;2.02;68.41
56831;BME280;42713;42.676;23.352;2023-11-19T05:42:46;94866.97;;;2.00;68.42
56831;BME280;42713;42.676;23.352;2023-11-19T05:45:12;94868.09;;;1.97;68.44
56831;BME280;42713;42.676;23.352;2023-11-19T05:47:37;94860.91;;;1.93;68.70
56831;BME280;42713;42.676;23.352;2023-11-19T05:50:03;94864.47;;;1.92;68.88
56831;BME280;42713;42.676;23.352;2023-11-19T05:52:31;94867.69;;;1.94;68.59
56831;BME280;42713;42.676;23.352;2023-11-19T05:55:00;94850.22;;;1.96;68.54
56831;BME280;42713;42.676;23.352;2023-11-19T05:57:29;94850.22;;;1.96;68.00
56831;BME280;42713;42.676;23.352;2023-11-19T05:59:55;94832.88;;;1.90;68.39
56831;BME280;42713;42.676;23.352;2023-11-19T06:02:20;94870.69;;;1.97;68.38
56831;BME280;42713;42.676;23.352;2023-11-19T06:04:49;94865.09;;;1.94;68.24
56831;BME280;42713;42.676;23.352;2023-11-19T06:07:15;94879.66;;;1.80;69.48
56831;BME280;42713;42.676;23.352;2023-11-19T06:09:41;94896.34;;;1.77;69.54
56831;BME280;42713;42.676;23.352;2023-11-19T06:12:06;94908.50;;;1.83;69.38
56831;BME280;42713;42.676;23.352;2023-11-19T06:14:32;94903.53;;;1.82;69.06
56831;BME280;42713;42.676;23.352;2023-11-19T06:16:58;94891.59;;;1.81;69.36
56831;BME280;42713;42.676;23.352;2023-11-19T06:19:23;94891.78;;;1.79;69.24
56831;BME280;42713;42.676;23.352;2023-11-19T06:21:50;94871.84;;;1.73;69.76
56831;BME280;42713;42.676;23.352;2023-11-19T06:24:18;94867.66;;;1.72;69.85
56831;BME280;42713;42.676;23.352;2023-11-19T06:26:47;94870.94;;;1.81;69.26
56831;BME280;42713;42.676;23.352;2023-11-19T06:29:13;94875.66;;;1.77;69.97
56831;BME280;42713;42.676;23.352;2023-11-19T06:31:46;94885.81;;;1.79;70.05
56831;BME280;42713;42.676;23.352;2023-11-19T06:34:14;94888.59;;;1.77;69.63
56831;BME280;42713;42.676;23.352;2023-11-19T06:36:39;94895.72;;;1.75;69.47
56831;BME280;42713;42.676;23.352;2023-11-19T06:39:05;94874.00;;;1.69;71.36
56831;BME280;42713;42.676;23.352;2023-11-19T06:41:31;94924.38;;;1.80;70.14
56831;BME280;42713;42.676;23.352;2023-11-19T06:43:56;94884.63;;;1.81;69.44
56831;BME280;42713;42.676;23.352;2023-11-19T06:46:22;94870.69;;;1.76;69.42
56831;BME280;42713;42.676;23.352;2023-11-19T06:48:47;94887.75;;;1.77;69.06
56831;BME280;42713;42.676;23.352;2023-11-19T06:51:13;94886.63;;;1.79;69.47
56831;BME280;42713;42.676;23.352;2023-11-19T06:53:46;94900.59;;;1.85;70.54
56831;BME280;42713;42.676;23.352;2023-11-19T06:56:38;94909.47;;;1.82;68.88
56831;BME280;42713;42.676;23.352;2023-11-19T06:59:04;94949.47;;;1.86;68.60
56831;BME280;42713;42.676;23.352;2023-11-19T07:01:35;94894.59;;;1.84;68.24
56831;BME280;42713;42.676;23.352;2023-11-19T07:04:01;94905.84;;;1.77;68.54
56831;BME280;42713;42.676;23.352;2023-11-19T07:06:33;94906.31;;;1.80;68.43
56831;BME280;42713;42.676;23.352;2023-11-19T07:09:00;94910.22;;;1.76;68.32
56831;BME280;42713;42.676;23.352;2023-11-19T07:11:35;94918.94;;;1.75;68.34
56831;BME280;42713;42.676;23.352;2023-11-19T07:14:01;94904.63;;;1.73;68.04
56831;BME280;42713;42.676;23.352;2023-11-19T07:16:27;94903.81;;;1.72;68.22
56831;BME280;42713;42.676;23.352;2023-11-19T07:18:52;94905.50;;;1.80;68.70
56831;BME280;42713;42.676;23.352;2023-11-19T07:21:18;94905.56;;;1.86;68.12
56831;BME280;42713;42.676;23.352;2023-11-19T07:23:45;94933.44;;;1.91;67.81
56831;BME280;42713;42.676;23.352;2023-11-19T07:26:10;94925.31;;;1.94;67.76
56831;BME280;42713;42.676;23.352;2023-11-19T07:28:36;94931.03;;;1.90;67.16
56831;BME280;42713;42.676;23.352;2023-11-19T07:31:01;94931.94;;;1.82;67.32
56831;BME280;42713;42.676;23.352;2023-11-19T07:33:27;94958.47;;;1.91;67.72
56831;BME280;42713;42.676;23.352;2023-11-19T07:35:52;94943.31;;;1.88;68.15
56831;BME280;42713;42.676;23.352;2023-11-19T07:38:18;94937.94;;;2.04;67.24
56831;BME280;42713;42.676;23.352;2023-11-19T07:40:43;94949.13;;;2.11;68.00
56831;BME280;42713;42.676;23.352;2023-11-19T07:43:10;94931.31;;;2.16;68.56
56831;BME280;42713;42.676;23.352;2023-11-19T07:45:35;94946.69;;;2.25;68.11
56831;BME280;42713;42.676;23.352;2023-11-19T07:48:01;94956.00;;;2.04;67.72
56831;BME280;42713;42.676;23.352;2023-11-19T07:50:27;94961.19;;;2.04;67.64
56831;BME280;42713;42.676;23.352;2023-11-19T07:52:53;94947.31;;;1.90;67.43
56831;BME280;42713;42.676;23.352;2023-11-19T07:55:18;94959.06;;;1.93;68.07
56831;BME280;42713;42.676;23.352;2023-11-19T07:57:46;94985.19;;;1.83;68.56
56831;BME280;42713;42.676;23.352;2023-11-19T08:00:12;94974.03;;;1.82;67.52
56831;BME280;42713;42.676;23.352;2023-11-19T08:02:38;94948.22;;;1.82;69.01
56831;BME280;42713;42.676;23.352;2023-11-19T08:05:07;94949.13;;;1.90;67.98
56831;BME280;42713;42.676;23.352;2023-11-19T08:07:33;94958.63;;;1.89;67.96
56831;BME280;42713;42.676;23.352;2023-11-19T08:09:58;94963.09;;;1.95;68.33
56831;BME280;42713;42.676;23.352;2023-11-19T08:12:25;94963.25;;;1.94;67.56
56831;BME280;42713;42.676;23.352;2023-11-19T08:14:53;94957.38;;;2.00;67.41
56831;BME280;42713;42.676;23.352;2023-11-19T08:17:18;94987.00;;;2.04;67.70
56831;BME280;42713;42.676;23.352;2023-11-19T08:19:44;94980.16;;;1.96;67.43
56831;BME280;42713;42.676;23.352;2023-11-19T08:22:09;94971.44;;;1.97;68.20
56831;BME280;42713;42.676;23.352;2023-11-19T08:24:35;94973.78;;;1.92;67.91
56831;BME280;42713;42.676;23.352;2023-11-19T08:27:00;94975.38;;;1.93;67.69
56831;BME280;42713;42.676;23.352;2023-11-19T08:29:26;94970.66;;;1.97;67.33
56831;BME280;42713;42.676;23.352;2023-11-19T08:31:52;94983.75;;;1.95;67.14
56831;BME280;42713;42.676;23.352;2023-11-19T08:34:18;94961.22;;;1.89;67.64
56831;BME280;42713;42.676;23.352;2023-11-19T08:36:44;94998.47;;;1.80;68.02
56831;BME280;42713;42.676;23.352;2023-11-19T08:39:09;94972.63;;;1.80;67.16
56831;BME280;42713;42.676;23.352;2023-11-19T08:41:35;94973.06;;;1.83;67.87
56831;BME280;42713;42.676;23.352;2023-11-19T08:44:00;94985.53;;;1.95;67.58
56831;BME280;42713;42.676;23.352;2023-11-19T08:46:26;94991.72;;;2.15;67.08
56831;BME280;42713;42.676;23.352;2023-11-19T08:48:52;94983.69;;;2.25;66.33
56831;BME280;42713;42.676;23.352;2023-11-19T08:51:17;94980.72;;;2.28;65.95
56831;BME280;42713;42.676;23.352;2023-11-19T08:53:42;94986.84;;;2.27;65.58
56831;BME280;42713;42.676;23.352;2023-11-19T08:56:08;94975.59;;;2.13;65.72
56831;BME280;42713;42.676;23.352;2023-11-19T08:58:33;94979.84;;;2.21;66.67
56831;BME280;42713;42.676;23.352;2023-11-19T09:00:59;94995.03;;;2.31;66.19
56831;BME280;42713;42.676;23.352;2023-11-19T09:03:24;95010.38;;;2.32;65.71
56831;BME280;42713;42.676;23.352;2023-11-19T09:05:54;94958.13;;;2.15;64.97
56831;BME280;42713;42.676;23.352;2023-11-19T09:08:19;95025.56;;;2.21;65.33
56831;BME280;42713;42.676;23.352;2023-11-19T09:10:45;94962.50;;;2.15;66.21
56831;BME280;42713;42.676;23.352;2023-11-19T09:13:11;94966.56;;;2.24;65.74
56831;BME280;42713;42.676;23.352;2023-11-19T09:15:36;94956.88;;;2.11;66.54
56831;BME280;42713;42.676;23.352;2023-11-19T09:18:04;94948.53;;;2.09;66.49
56831;BME280;42713;42.676;23.352;2023-11-19T09:20:30;94954.56;;;2.16;66.18
56831;BME280;42713;42.676;23.352;2023-11-19T09:23:03;94974.69;;;2.21;66.45
56831;BME280;42713;42.676;23.352;2023-11-19T09:25:28;94947.16;;;2.13;66.36
56831;BME280;42713;42.676;23.352;2023-11-19T09:27:55;94982.72;;;2.11;66.28
56831;BME280;42713;42.676;23.352;2023-11-19T09:30:20;94975.22;;;2.16;66.40
56831;BME280;42713;42.676;23.352;2023-11-19T09:32:46;94988.78;;;2.18;66.85
56831;BME280;42713;42.676;23.352;2023-11-19T09:35:12;94972.94;;;2.28;66.14
56831;BME280;42713;42.676;23.352;2023-11-19T09:37:40;94986.50;;;2.30;65.67
56831;BME280;42713;42.676;23.352;2023-11-19T09:40:06;94954.44;;;2.25;65.74
56831;BME280;42713;42.676;23.352;2023-11-19T09:42:42;94958.13;;;2.37;66.44
56831;BME280;42713;42.676;23.352;2023-11-19T09:45:13;94928.53;;;2.40;65.44
56831;BME280;42713;42.676;23.352;2023-11-19T09:47:42;94931.53;;;2.43;66.61
56831;BME280;42713;42.676;23.352;2023-11-19T09:50:08;94916.84;;;2.44;65.35
56831;BME280;42713;42.676;23.352;2023-11-19T09:52:35;94902.16;;;2.51;65.59
56831;BME280;42713;42.676;23.352;2023-11-19T09:55:00;94920.06;;;2.53;64.71
56831;BME280;42713;42.676;23.352;2023-11-19T09:57:27;94926.78;;;2.47;64.80
56831;BME280;42713;42.676;23.352;2023-11-19T09:59:56;94920.81;;;2.46;63.97
56831;BME280;42713;42.676;23.352;2023-11-19T10:02:23;94903.66;;;2.39;64.17
56831;BME280;42713;42.676;23.352;2023-11-19T10:04:50;94911.00;;;2.35;64.67
56831;BME280;42713;42.676;23.352;2023-11-19T10:07:16;94897.06;;;2.36;64.53
56831;BME280;42713;42.676;23.352;2023-11-19T10:09:42;94910.44;;;2.40;64.75
56831;BME280;42713;42.676;23.352;2023-11-19T10:12:07;94905.50;;;2.45;65.48
56831;BME280;42713;42.676;23.352;2023-11-19T10:14:34;94890.84;;;2.52;65.53
56831;BME280;42713;42.676;23.352;2023-11-19T10:17:03;94886.47;;;2.53;64.80
56831;BME280;42713;42.676;23.352;2023-11-19T10:19:31;94942.56;;;2.52;63.66
56831;BME280;42713;42.676;23.352;2023-11-19T10:22:05;94900.56;;;2.50;63.90
56831;BME280;42713;42.676;23.352;2023-11-19T10:24:32;94911.91;;;2.49;63.88
56831;BME280;42713;42.676;23.352;2023-11-19T10:27:01;94906.59;;;2.57;63.62
56831;BME280;42713;42.676;23.352;2023-11-19T10:29:29;94902.09;;;2.66;64.19
56831;BME280;42713;42.676;23.352;2023-11-19T10:31:56;94878.13;;;2.86;63.31
56831;BME280;42713;42.676;23.352;2023-11-19T10:34:26;94930.31;;;2.89;64.40
56831;BME280;42713;42.676;23.352;2023-11-19T10:36:52;94882.94;;;2.89;63.53
56831;BME280;42713;42.676;23.352;2023-11-19T10:39:18;94876.81;;;2.96;63.50
56831;BME280;42713;42.676;23.352;2023-11-19T10:41:43;94881.81;;;2.98;62.87
56831;BME280;42713;42.676;23.352;2023-11-19T10:44:08;94897.97;;;3.07;62.87
56831;BME280;42713;42.676;23.352;2023-11-19T10:46:41;94890.03;;;3.15;62.02
56831;BME280;42713;42.676;23.352;2023-11-19T10:49:07;94906.91;;;3.04;61.34
56831;BME280;42713;42.676;23.352;2023-11-19T10:51:33;94906.44;;;3.29;63.14
56831;BME280;42713;42.676;23.352;2023-11-19T10:54:05;94910.91;;;3.42;62.55
56831;BME280;42713;42.676;23.352;2023-11-19T10:56:31;94896.19;;;3.49;63.06
56831;BME280;42713;42.676;23.352;2023-11-19T10:58:59;94884.84;;;3.50;65.13
56831;BME280;42713;42.676;23.352;2023-11-19T11:01:55;94866.88;;;3.49;63.82
56831;BME280;42713;42.676;23.352;2023-11-19T11:21:16;94834.22;;;3.54;60.21
56831;BME280;42713;42.676;23.352;2023-11-19T11:31:14;94837.41;;;3.50;61.26
56831;BME280;42713;42.676;23.352;2023-11-19T11:36:22;94848.97;;;3.47;61.33
56831;BME280;42713;42.676;23.352;2023-11-19T11:38:49;94871.69;;;3.52;62.07
56831;BME280;42713;42.676;23.352;2023-11-19T11:49:05;94856.03;;;3.94;61.38
56831;BME280;42713;42.676;23.352;2023-11-19T11:57:09;94821.75;;;3.98;61.01
56831;BME280;42713;42.676;23.352;2023-11-19T12:02:13;94854.09;;;4.16;59.77
56831;BME280;42713;42.676;23.352;2023-11-19T12:04:42;94828.16;;;4.29;58.48
56831;BME280;42713;42.676;23.352;2023-11-19T12:07:12;94842.72;;;4.44;61.57
56831;BME280;42713;42.676;23.352;2023-11-19T12:09:42;94839.13;;;4.45;58.23
56831;BME280;42713;42.676;23.352;2023-11-19T12:20:07;94824.31;;;4.65;60.33
56831;BME280;42713;42.676;23.352;2023-11-19T12:22:44;94799.41;;;4.64;59.44
56831;BME280;42713;42.676;23.352;2023-11-19T12:25:11;94793.78;;;4.74;59.50
56831;BME280;42713;42.676;23.352;2023-11-19T12:27:44;94799.97;;;4.66;58.88
56831;BME280;42713;42.676;23.352;2023-11-19T12:30:09;94793.41;;;4.71;59.02
56831;BME280;42713;42.676;23.352;2023-11-19T12:32:44;94789.59;;;4.73;57.92
56831;BME280;42713;42.676;23.352;2023-11-19T12:35:13;94788.78;;;4.79;58.95
56831;BME280;42713;42.676;23.352;2023-11-19T12:37:41;94778.97;;;4.88;57.83
56831;BME280;42713;42.676;23.352;2023-11-19T12:40:22;94788.09;;;5.04;58.58
56831;BME280;42713;42.676;23.352;2023-11-19T12:42:51;94781.47;;;5.15;57.51
56831;BME280;42713;42.676;23.352;2023-11-19T12:45:18;94765.25;;;5.20;58.02
56831;BME280;42713;42.676;23.352;2023-11-19T12:47:45;94765.25;;;5.20;57.79
56831;BME280;42713;42.676;23.352;2023-11-19T12:50:15;94779.09;;;5.07;58.86
56831;BME280;42713;42.676;23.352;2023-11-19T12:52:42;94760.06;;;5.20;59.07
56831;BME280;42713;42.676;23.352;2023-11-19T12:55:27;94773.50;;;5.49;57.07
56831;BME280;42713;42.676;23.352;2023-11-19T12:57:56;94769.13;;;5.49;56.61
56831;BME280;42713;42.676;23.352;2023-11-19T13:00:24;94763.34;;;5.47;57.26
56831;BME280;42713;42.676;23.352;2023-11-19T13:02:56;94760.59;;;5.35;56.61
56831;BME280;42713;42.676;23.352;2023-11-19T13:08:13;94770.38;;;5.40;55.98
56831;BME280;42713;42.676;23.352;2023-11-19T13:10:52;94745.09;;;5.22;55.95
56831;BME280;42713;42.676;23.352;2023-11-19T13:13:21;94758.63;;;5.30;56.17
56831;BME280;42713;42.676;23.352;2023-11-19T13:15:49;94760.81;;;5.34;57.30
56831;BME280;42713;42.676;23.352;2023-11-19T13:18:16;94756.13;;;5.49;57.36
56831;BME280;42713;42.676;23.352;2023-11-19T13:20:41;94753.28;;;5.57;55.60
56831;BME280;42713;42.676;23.352;2023-11-19T13:23:08;94753.41;;;5.69;54.82
56831;BME280;42713;42.676;23.352;2023-11-19T13:25:36;94741.16;;;5.76;55.39
56831;BME280;42713;42.676;23.352;2023-11-19T13:28:02;94727.28;;;5.89;54.89
56831;BME280;42713;42.676;23.352;2023-11-19T13:30:39;94727.50;;;6.13;53.19
56831;BME280;42713;42.676;23.352;2023-11-19T13:33:04;94740.13;;;6.10;53.79
56831;BME280;42713;42.676;23.352;2023-11-19T13:35:30;94735.25;;;5.88;54.22
56831;BME280;42713;42.676;23.352;2023-11-19T13:37:58;94734.56;;;5.74;54.27
56831;BME280;42713;42.676;23.352;2023-11-19T13:40:23;94738.97;;;6.05;54.16
56831;BME280;42713;42.676;23.352;2023-11-19T13:42:50;94737.69;;;6.15;54.54
56831;BME280;42713;42.676;23.352;2023-11-19T13:45:15;94740.06;;;6.16;53.59
56831;BME280;42713;42.676;23.352;2023-11-19T13:47:45;94756.00;;;6.01;54.95
56831;BME280;42713;42.676;23.352;2023-11-19T13:50:15;94746.97;;;6.04;55.35
56831;BME280;42713;42.676;23.352;2023-11-19T13:52:46;94740.34;;;6.08;54.07
56831;BME280;42713;42.676;23.352;2023-11-19T13:55:16;94745.28;;;6.16;54.05
56831;BME280;42713;42.676;23.352;2023-11-19T13:57:49;94739.19;;;6.48;54.21
56831;BME280;42713;42.676;23.352;2023-11-19T14:00:15;94752.50;;;6.77;52.66